sensor_id;sensor_type;location;lat;lon;timestamp;temperature;humidity
57390;DHT22;43217;52.694;6.214;2022-12-11T00:01:35;0.40;99.90
57390;DHT22;43217;52.694;6.214;2022-12-11T00:04:01;0.40;99.90
57390;DHT22;43217;52.694;6.214;2022-12-11T00:06:26;0.40;99.90
57390;DHT22;43217;52.694;6.214;2022-12-11T00:08:53;0.40;99.90
57390;DHT22;43217;52.694;6.214;2022-12-11T00:11:19;0.40;99.90
57390;DHT22;43217;52.694;6.214;2022-12-11T00:13:45;0.40;99.90
57390;DHT22;43217;52.694;6.214;2022-12-11T00:16:11;0.40;99.90
57390;DHT22;43217;52.694;6.214;2022-12-11T00:18:37;0.40;99.90
57390;DHT22;43217;52.694;6.214;2022-12-11T00:21:05;0.40;99.90
57390;DHT22;43217;52.694;6.214;2022-12-11T00:23:32;0.40;99.90
57390;DHT22;43217;52.694;6.214;2022-12-11T00:25:58;0.40;99.90
57390;DHT22;43217;52.694;6.214;2022-12-11T00:28:23;0.40;99.90
57390;DHT22;43217;52.694;6.214;2022-12-11T00:30:49;0.40;99.90
57390;DHT22;43217;52.694;6.214;2022-12-11T00:33:15;0.40;99.90
57390;DHT22;43217;52.694;6.214;2022-12-11T00:35:44;0.40;99.90
57390;DHT22;43217;52.694;6.214;2022-12-11T00:38:16;0.40;99.90
57390;DHT22;43217;52.694;6.214;2022-12-11T00:40:42;0.40;99.90
57390;DHT22;43217;52.694;6.214;2022-12-11T00:43:08;0.40;99.90
57390;DHT22;43217;52.694;6.214;2022-12-11T00:45:42;0.40;99.90
57390;DHT22;43217;52.694;6.214;2022-12-11T00:48:09;0.40;99.90
57390;DHT22;43217;52.694;6.214;2022-12-11T00:50:35;0.40;99.90
57390;DHT22;43217;52.694;6.214;2022-12-11T00:53:03;0.40;99.90
57390;DHT22;43217;52.694;6.214;2022-12-11T00:55:28;0.40;99.90
57390;DHT22;43217;52.694;6.214;2022-12-11T00:57:55;0.40;99.90
57390;DHT22;43217;52.694;6.214;2022-12-11T01:00:22;0.40;99.90
57390;DHT22;43217;52.694;6.214;2022-12-11T01:02:48;0.40;99.90
57390;DHT22;43217;52.694;6.214;2022-12-11T01:05:14;0.40;99.90
57390;DHT22;43217;52.694;6.214;2022-12-11T01:07:39;0.40;99.90
57390;DHT22;43217;52.694;6.214;2022-12-11T01:10:05;0.40;99.90
57390;DHT22;43217;52.694;6.214;2022-12-11T01:13:09;0.50;99.90
57390;DHT22;43217;52.694;6.214;2022-12-11T01:15:41;0.50;99.90
57390;DHT22;43217;52.694;6.214;2022-12-11T01:18:12;0.50;99.90
57390;DHT22;43217;52.694;6.214;2022-12-11T01:20:40;0.50;99.90
57390;DHT22;43217;52.694;6.214;2022-12-11T01:23:06;0.50;99.90
57390;DHT22;43217;52.694;6.214;2022-12-11T01:25:34;0.50;99.90
57390;DHT22;43217;52.694;6.214;2022-12-11T01:28:00;0.50;99.90
57390;DHT22;43217;52.694;6.214;2022-12-11T01:30:25;0.50;99.90
57390;DHT22;43217;52.694;6.214;2022-12-11T01:32:51;0.50;99.90
57390;DHT22;43217;52.694;6.214;2022-12-11T01:35:18;0.50;99.90
57390;DHT22;43217;52.694;6.214;2022-12-11T01:37:44;0.50;99.90
57390;DHT22;43217;52.694;6.214;2022-12-11T01:40:13;0.60;99.90
57390;DHT22;43217;52.694;6.214;2022-12-11T01:42:39;0.60;99.90
57390;DHT22;43217;52.694;6.214;2022-12-11T01:48:38;0.60;99.90
57390;DHT22;43217;52.694;6.214;2022-12-11T01:50:51;0.60;99.90
57390;DHT22;43217;52.694;6.214;2022-12-11T01:53:35;0.60;99.90
57390;DHT22;43217;52.694;6.214;2022-12-11T01:56:03;0.60;99.90
57390;DHT22;43217;52.694;6.214;2022-12-11T01:58:33;0.60;99.90
57390;DHT22;43217;52.694;6.214;2022-12-11T02:00:59;0.60;99.90
57390;DHT22;43217;52.694;6.214;2022-12-11T02:03:27;0.60;99.90
57390;DHT22;43217;52.694;6.214;2022-12-11T02:05:52;0.70;99.90
57390;DHT22;43217;52.694;6.214;2022-12-11T02:08:18;0.70;99.90
57390;DHT22;43217;52.694;6.214;2022-12-11T02:11:04;0.70;99.90
57390;DHT22;43217;52.694;6.214;2022-12-11T02:16:38;0.70;99.90
57390;DHT22;43217;52.694;6.214;2022-12-11T02:19:17;0.70;99.90
57390;DHT22;43217;52.694;6.214;2022-12-11T02:21:50;0.70;99.90
57390;DHT22;43217;52.694;6.214;2022-12-11T02:24:24;0.60;99.90
57390;DHT22;43217;52.694;6.214;2022-12-11T02:29:37;0.70;99.90
57390;DHT22;43217;52.694;6.214;2022-12-11T02:32:20;0.70;99.90
57390;DHT22;43217;52.694;6.214;2022-12-11T02:37:35;0.70;99.90
57390;DHT22;43217;52.694;6.214;2022-12-11T02:40:05;0.70;99.90
57390;DHT22;43217;52.694;6.214;2022-12-11T02:42:32;0.70;99.90
57390;DHT22;43217;52.694;6.214;2022-12-11T02:44:59;0.70;99.90
57390;DHT22;43217;52.694;6.214;2022-12-11T02:47:27;0.70;99.90
57390;DHT22;43217;52.694;6.214;2022-12-11T02:49:55;0.70;99.90
57390;DHT22;43217;52.694;6.214;2022-12-11T02:52:24;0.70;99.90
57390;DHT22;43217;52.694;6.214;2022-12-11T02:54:55;0.80;99.90
57390;DHT22;43217;52.694;6.214;2022-12-11T02:57:30;0.80;99.90
57390;DHT22;43217;52.694;6.214;2022-12-11T03:00:00;0.70;99.90
57390;DHT22;43217;52.694;6.214;2022-12-11T03:02:25;0.80;99.90
57390;DHT22;43217;52.694;6.214;2022-12-11T03:04:51;0.80;99.90
57390;DHT22;43217;52.694;6.214;2022-12-11T03:07:21;0.80;99.90
57390;DHT22;43217;52.694;6.214;2022-12-11T03:09:48;0.80;99.90
57390;DHT22;43217;52.694;6.214;2022-12-11T03:12:22;0.80;99.90
57390;DHT22;43217;52.694;6.214;2022-12-11T03:14:49;0.80;99.90
57390;DHT22;43217;52.694;6.214;2022-12-11T03:17:22;0.80;99.90
57390;DHT22;43217;52.694;6.214;2022-12-11T03:20:10;0.80;99.90
57390;DHT22;43217;52.694;6.214;2022-12-11T03:22:41;0.90;99.90
57390;DHT22;43217;52.694;6.214;2022-12-11T03:25:14;0.90;99.90
57390;DHT22;43217;52.694;6.214;2022-12-11T03:27:49;0.90;99.90
57390;DHT22;43217;52.694;6.214;2022-12-11T03:30:19;0.90;99.90
57390;DHT22;43217;52.694;6.214;2022-12-11T03:33:07;0.90;99.90
57390;DHT22;43217;52.694;6.214;2022-12-11T03:35:39;0.90;99.90
57390;DHT22;43217;52.694;6.214;2022-12-11T03:38:12;0.90;99.90
57390;DHT22;43217;52.694;6.214;2022-12-11T03:40:42;1.00;99.90
57390;DHT22;43217;52.694;6.214;2022-12-11T03:43:10;1.00;99.90
57390;DHT22;43217;52.694;6.214;2022-12-11T03:45:38;0.90;99.90
57390;DHT22;43217;52.694;6.214;2022-12-11T03:48:04;1.00;99.90
57390;DHT22;43217;52.694;6.214;2022-12-11T03:50:33;1.00;99.90
57390;DHT22;43217;52.694;6.214;2022-12-11T03:52:59;1.00;99.90
57390;DHT22;43217;52.694;6.214;2022-12-11T03:55:27;1.00;99.90
57390;DHT22;43217;52.694;6.214;2022-12-11T03:57:53;1.00;99.90
57390;DHT22;43217;52.694;6.214;2022-12-11T04:00:20;1.00;99.90
57390;DHT22;43217;52.694;6.214;2022-12-11T04:02:46;1.00;99.90
57390;DHT22;43217;52.694;6.214;2022-12-11T04:05:35;1.00;99.90
57390;DHT22;43217;52.694;6.214;2022-12-11T04:08:00;1.00;99.90
57390;DHT22;43217;52.694;6.214;2022-12-11T04:10:26;1.00;99.90
57390;DHT22;43217;52.694;6.214;2022-12-11T04:12:52;1.00;99.90
57390;DHT22;43217;52.694;6.214;2022-12-11T04:15:17;1.00;99.90
57390;DHT22;43217;52.694;6.214;2022-12-11T04:17:43;1.00;99.90
57390;DHT22;43217;52.694;6.214;2022-12-11T04:20:27;1.00;99.90
57390;DHT22;43217;52.694;6.214;2022-12-11T04:23:16;1.00;99.90
57390;DHT22;43217;52.694;6.214;2022-12-11T04:26:11;1.00;99.90
57390;DHT22;43217;52.694;6.214;2022-12-11T04:28:39;1.00;99.90
57390;DHT22;43217;52.694;6.214;2022-12-11T04:31:05;1.00;99.90
57390;DHT22;43217;52.694;6.214;2022-12-11T04:33:31;1.00;99.90
57390;DHT22;43217;52.694;6.214;2022-12-11T04:35:58;1.00;99.90
57390;DHT22;43217;52.694;6.214;2022-12-11T04:38:24;1.00;99.90
57390;DHT22;43217;52.694;6.214;2022-12-11T04:41:03;1.00;99.90
57390;DHT22;43217;52.694;6.214;2022-12-11T04:43:29;1.10;99.90
57390;DHT22;43217;52.694;6.214;2022-12-11T04:46:12;1.10;99.90
57390;DHT22;43217;52.694;6.214;2022-12-11T04:48:39;1.10;99.90
57390;DHT22;43217;52.694;6.214;2022-12-11T04:51:06;1.10;99.90
57390;DHT22;43217;52.694;6.214;2022-12-11T04:53:32;1.10;99.90
57390;DHT22;43217;52.694;6.214;2022-12-11T04:55:58;1.10;99.90
57390;DHT22;43217;52.694;6.214;2022-12-11T04:58:25;1.10;99.90
57390;DHT22;43217;52.694;6.214;2022-12-11T05:00:51;1.10;99.90
57390;DHT22;43217;52.694;6.214;2022-12-11T05:03:17;1.10;99.90
57390;DHT22;43217;52.694;6.214;2022-12-11T05:05:50;1.10;99.90
57390;DHT22;43217;52.694;6.214;2022-12-11T05:08:19;1.10;99.90
57390;DHT22;43217;52.694;6.214;2022-12-11T05:10:57;1.10;99.90
57390;DHT22;43217;52.694;6.214;2022-12-11T05:13:23;1.10;99.90
57390;DHT22;43217;52.694;6.214;2022-12-11T05:15:50;1.10;99.90
57390;DHT22;43217;52.694;6.214;2022-12-11T05:18:15;1.10;99.90
57390;DHT22;43217;52.694;6.214;2022-12-11T05:20:41;1.10;99.90
57390;DHT22;43217;52.694;6.214;2022-12-11T05:23:07;1.10;99.90
57390;DHT22;43217;52.694;6.214;2022-12-11T05:25:32;1.10;99.90
57390;DHT22;43217;52.694;6.214;2022-12-11T05:27:58;1.10;99.90
57390;DHT22;43217;52.694;6.214;2022-12-11T05:30:23;1.10;99.90
57390;DHT22;43217;52.694;6.214;2022-12-11T05:32:49;1.10;99.90
57390;DHT22;43217;52.694;6.214;2022-12-11T05:35:15;1.10;99.90
57390;DHT22;43217;52.694;6.214;2022-12-11T05:37:40;1.10;99.90
57390;DHT22;43217;52.694;6.214;2022-12-11T05:40:06;1.10;99.90
57390;DHT22;43217;52.694;6.214;2022-12-11T05:42:33;1.10;99.90
57390;DHT22;43217;52.694;6.214;2022-12-11T05:44:58;1.10;99.90
57390;DHT22;43217;52.694;6.214;2022-12-11T05:47:24;1.10;99.90
57390;DHT22;43217;52.694;6.214;2022-12-11T05:49:50;1.10;99.90
57390;DHT22;43217;52.694;6.214;2022-12-11T05:52:16;1.10;99.90
57390;DHT22;43217;52.694;6.214;2022-12-11T05:54:42;1.10;99.90
57390;DHT22;43217;52.694;6.214;2022-12-11T05:57:07;1.10;99.90
57390;DHT22;43217;52.694;6.214;2022-12-11T05:59:33;1.10;99.90
57390;DHT22;43217;52.694;6.214;2022-12-11T06:01:59;1.00;99.90
57390;DHT22;43217;52.694;6.214;2022-12-11T06:04:25;1.10;99.90
57390;DHT22;43217;52.694;6.214;2022-12-11T06:06:53;1.00;99.90
57390;DHT22;43217;52.694;6.214;2022-12-11T06:09:19;1.00;99.90
57390;DHT22;43217;52.694;6.214;2022-12-11T06:11:45;1.00;99.90
57390;DHT22;43217;52.694;6.214;2022-12-11T06:14:11;1.00;99.90
57390;DHT22;43217;52.694;6.214;2022-12-11T06:16:37;1.00;99.90
57390;DHT22;43217;52.694;6.214;2022-12-11T06:19:02;1.00;99.90
57390;DHT22;43217;52.694;6.214;2022-12-11T06:21:30;1.00;99.90
57390;DHT22;43217;52.694;6.214;2022-12-11T06:23:58;1.00;99.90
57390;DHT22;43217;52.694;6.214;2022-12-11T06:26:25;1.00;99.90
57390;DHT22;43217;52.694;6.214;2022-12-11T06:28:51;1.00;99.90
57390;DHT22;43217;52.694;6.214;2022-12-11T06:31:17;1.00;99.90
57390;DHT22;43217;52.694;6.214;2022-12-11T06:33:43;1.00;99.90
57390;DHT22;43217;52.694;6.214;2022-12-11T06:36:12;1.10;99.90
57390;DHT22;43217;52.694;6.214;2022-12-11T06:38:38;1.10;99.90
57390;DHT22;43217;52.694;6.214;2022-12-11T06:41:05;1.10;99.90
57390;DHT22;43217;52.694;6.214;2022-12-11T06:43:32;1.10;99.90
57390;DHT22;43217;52.694;6.214;2022-12-11T06:45:58;1.10;99.90
57390;DHT22;43217;52.694;6.214;2022-12-11T06:48:24;1.10;99.90
57390;DHT22;43217;52.694;6.214;2022-12-11T06:50:50;1.10;99.90
57390;DHT22;43217;52.694;6.214;2022-12-11T06:53:16;1.10;99.90
57390;DHT22;43217;52.694;6.214;2022-12-11T06:55:42;1.10;99.90
57390;DHT22;43217;52.694;6.214;2022-12-11T06:58:08;1.00;99.90
57390;DHT22;43217;52.694;6.214;2022-12-11T07:00:35;1.00;99.90
57390;DHT22;43217;52.694;6.214;2022-12-11T07:03:01;1.00;99.90
57390;DHT22;43217;52.694;6.214;2022-12-11T07:05:27;1.00;99.90
57390;DHT22;43217;52.694;6.214;2022-12-11T07:07:53;1.00;99.90
57390;DHT22;43217;52.694;6.214;2022-12-11T07:10:19;1.00;99.90
57390;DHT22;43217;52.694;6.214;2022-12-11T07:12:45;1.00;99.90
57390;DHT22;43217;52.694;6.214;2022-12-11T07:15:11;1.10;99.90
57390;DHT22;43217;52.694;6.214;2022-12-11T07:17:36;1.10;99.90
57390;DHT22;43217;52.694;6.214;2022-12-11T07:20:02;1.10;99.90
57390;DHT22;43217;52.694;6.214;2022-12-11T07:22:28;1.10;99.90
57390;DHT22;43217;52.694;6.214;2022-12-11T07:24:54;1.10;99.90
57390;DHT22;43217;52.694;6.214;2022-12-11T07:27:19;1.10;99.90
57390;DHT22;43217;52.694;6.214;2022-12-11T07:29:45;1.10;99.90
57390;DHT22;43217;52.694;6.214;2022-12-11T07:32:10;1.10;99.90
57390;DHT22;43217;52.694;6.214;2022-12-11T07:34:36;1.10;99.90
57390;DHT22;43217;52.694;6.214;2022-12-11T07:37:02;1.10;99.90
57390;DHT22;43217;52.694;6.214;2022-12-11T07:39:28;1.10;99.90
57390;DHT22;43217;52.694;6.214;2022-12-11T07:41:53;1.10;99.90
57390;DHT22;43217;52.694;6.214;2022-12-11T07:44:19;1.10;99.90
57390;DHT22;43217;52.694;6.214;2022-12-11T07:46:45;1.10;99.90
57390;DHT22;43217;52.694;6.214;2022-12-11T07:49:11;1.10;99.90
57390;DHT22;43217;52.694;6.214;2022-12-11T07:51:37;1.10;99.90
57390;DHT22;43217;52.694;6.214;2022-12-11T07:54:14;1.10;99.90
57390;DHT22;43217;52.694;6.214;2022-12-11T07:56:45;1.10;99.90
57390;DHT22;43217;52.694;6.214;2022-12-11T07:59:11;1.10;99.90
57390;DHT22;43217;52.694;6.214;2022-12-11T08:01:38;1.10;99.90
57390;DHT22;43217;52.694;6.214;2022-12-11T08:04:06;1.10;99.90
57390;DHT22;43217;52.694;6.214;2022-12-11T08:06:34;1.10;99.90
57390;DHT22;43217;52.694;6.214;2022-12-11T08:09:03;1.10;99.90
57390;DHT22;43217;52.694;6.214;2022-12-11T08:11:30;1.10;99.90
57390;DHT22;43217;52.694;6.214;2022-12-11T08:13:56;1.10;99.90
57390;DHT22;43217;52.694;6.214;2022-12-11T08:16:23;1.10;99.90
57390;DHT22;43217;52.694;6.214;2022-12-11T08:18:50;1.10;99.90
57390;DHT22;43217;52.694;6.214;2022-12-11T08:21:33;1.10;99.90
57390;DHT22;43217;52.694;6.214;2022-12-11T08:23:59;1.20;99.90
57390;DHT22;43217;52.694;6.214;2022-12-11T08:26:27;1.10;99.90
57390;DHT22;43217;52.694;6.214;2022-12-11T08:28:54;1.20;99.90
57390;DHT22;43217;52.694;6.214;2022-12-11T08:31:20;1.20;99.90
57390;DHT22;43217;52.694;6.214;2022-12-11T08:33:46;1.20;99.90
57390;DHT22;43217;52.694;6.214;2022-12-11T08:36:14;1.20;99.90
57390;DHT22;43217;52.694;6.214;2022-12-11T08:38:40;1.20;99.90
57390;DHT22;43217;52.694;6.214;2022-12-11T08:41:20;1.20;99.90
57390;DHT22;43217;52.694;6.214;2022-12-11T08:43:47;1.30;99.90
57390;DHT22;43217;52.694;6.214;2022-12-11T08:46:13;1.30;99.90
57390;DHT22;43217;52.694;6.214;2022-12-11T08:48:40;1.30;99.90
57390;DHT22;43217;52.694;6.214;2022-12-11T08:51:09;1.30;99.90
57390;DHT22;43217;52.694;6.214;2022-12-11T08:53:35;1.30;99.90
57390;DHT22;43217;52.694;6.214;2022-12-11T08:56:10;1.30;99.90
57390;DHT22;43217;52.694;6.214;2022-12-11T08:58:36;1.40;99.90
57390;DHT22;43217;52.694;6.214;2022-12-11T09:01:11;1.40;99.90
57390;DHT22;43217;52.694;6.214;2022-12-11T09:03:37;1.40;99.90
57390;DHT22;43217;52.694;6.214;2022-12-11T09:06:12;1.30;99.90
57390;DHT22;43217;52.694;6.214;2022-12-11T09:08:40;1.30;99.90
57390;DHT22;43217;52.694;6.214;2022-12-11T09:11:10;1.30;99.90
57390;DHT22;43217;52.694;6.214;2022-12-11T09:13:37;1.30;99.90
57390;DHT22;43217;52.694;6.214;2022-12-11T09:16:04;1.30;99.90
57390;DHT22;43217;52.694;6.214;2022-12-11T09:18:30;1.30;99.90
57390;DHT22;43217;52.694;6.214;2022-12-11T09:21:04;1.30;99.90
57390;DHT22;43217;52.694;6.214;2022-12-11T09:23:30;1.30;99.90
57390;DHT22;43217;52.694;6.214;2022-12-11T09:25:56;1.30;99.90
57390;DHT22;43217;52.694;6.214;2022-12-11T09:28:22;1.30;99.90
57390;DHT22;43217;52.694;6.214;2022-12-11T09:30:48;1.30;99.90
57390;DHT22;43217;52.694;6.214;2022-12-11T09:33:14;1.40;99.90
57390;DHT22;43217;52.694;6.214;2022-12-11T09:35:40;1.40;99.90
57390;DHT22;43217;52.694;6.214;2022-12-11T09:38:06;1.40;99.90
57390;DHT22;43217;52.694;6.214;2022-12-11T09:40:32;1.40;99.90
57390;DHT22;43217;52.694;6.214;2022-12-11T09:43:02;1.40;99.90
57390;DHT22;43217;52.694;6.214;2022-12-11T09:45:30;1.40;99.90
57390;DHT22;43217;52.694;6.214;2022-12-11T09:47:59;1.40;99.90
57390;DHT22;43217;52.694;6.214;2022-12-11T09:50:27;1.40;99.90
57390;DHT22;43217;52.694;6.214;2022-12-11T09:55:51;1.40;99.90
57390;DHT22;43217;52.694;6.214;2022-12-11T09:58:36;1.50;99.90
57390;DHT22;43217;52.694;6.214;2022-12-11T10:07:37;1.50;99.90
57390;DHT22;43217;52.694;6.214;2022-12-11T10:10:12;1.50;99.90
57390;DHT22;43217;52.694;6.214;2022-12-11T10:15:39;1.50;99.90
57390;DHT22;43217;52.694;6.214;2022-12-11T10:18:13;1.50;99.90
57390;DHT22;43217;52.694;6.214;2022-12-11T10:20:40;1.50;99.90
57390;DHT22;43217;52.694;6.214;2022-12-11T10:23:12;1.50;99.90
57390;DHT22;43217;52.694;6.214;2022-12-11T10:25:43;1.50;99.90
57390;DHT22;43217;52.694;6.214;2022-12-11T10:28:12;1.50;99.90
57390;DHT22;43217;52.694;6.214;2022-12-11T10:31:16;1.60;99.90
57390;DHT22;43217;52.694;6.214;2022-12-11T10:34:03;1.60;99.90
57390;DHT22;43217;52.694;6.214;2022-12-11T10:36:36;1.60;99.90
57390;DHT22;43217;52.694;6.214;2022-12-11T10:39:13;1.60;99.90
57390;DHT22;43217;52.694;6.214;2022-12-11T10:41:42;1.60;99.90
57390;DHT22;43217;52.694;6.214;2022-12-11T10:44:17;1.60;99.90
57390;DHT22;43217;52.694;6.214;2022-12-11T10:46:45;1.60;99.90
57390;DHT22;43217;52.694;6.214;2022-12-11T10:49:50;1.60;99.90
57390;DHT22;43217;52.694;6.214;2022-12-11T10:52:23;1.60;99.90
57390;DHT22;43217;52.694;6.214;2022-12-11T10:55:06;1.50;99.90
57390;DHT22;43217;52.694;6.214;2022-12-11T10:57:36;1.60;99.90
57390;DHT22;43217;52.694;6.214;2022-12-11T11:02:58;1.70;99.90
57390;DHT22;43217;52.694;6.214;2022-12-11T11:05:34;1.60;99.90
57390;DHT22;43217;52.694;6.214;2022-12-11T11:08:18;1.60;99.90
57390;DHT22;43217;52.694;6.214;2022-12-11T11:10:59;1.60;99.90
57390;DHT22;43217;52.694;6.214;2022-12-11T11:13:30;1.60;99.90
57390;DHT22;43217;52.694;6.214;2022-12-11T11:16:06;1.60;99.90
57390;DHT22;43217;52.694;6.214;2022-12-11T11:18:32;1.60;99.90
57390;DHT22;43217;52.694;6.214;2022-12-11T11:20:59;1.60;99.90
57390;DHT22;43217;52.694;6.214;2022-12-11T11:23:26;1.60;99.90
57390;DHT22;43217;52.694;6.214;2022-12-11T11:25:58;1.60;99.90
57390;DHT22;43217;52.694;6.214;2022-12-11T11:28:26;1.60;99.90
57390;DHT22;43217;52.694;6.214;2022-12-11T11:31:11;1.70;99.90
57390;DHT22;43217;52.694;6.214;2022-12-11T11:36:26;1.70;99.90
57390;DHT22;43217;52.694;6.214;2022-12-11T11:39:02;1.70;99.90
57390;DHT22;43217;52.694;6.214;2022-12-11T11:44:22;1.70;99.90
57390;DHT22;43217;52.694;6.214;2022-12-11T11:47:08;1.70;99.90
57390;DHT22;43217;52.694;6.214;2022-12-11T11:49:54;1.80;99.90
57390;DHT22;43217;52.694;6.214;2022-12-11T11:52:31;1.80;99.90
57390;DHT22;43217;52.694;6.214;2022-12-11T11:55:02;1.80;99.90
57390;DHT22;43217;52.694;6.214;2022-12-11T11:57:45;1.70;99.90
57390;DHT22;43217;52.694;6.214;2022-12-11T12:00:22;1.70;99.90
57390;DHT22;43217;52.694;6.214;2022-12-11T12:02:52;1.70;99.90
57390;DHT22;43217;52.694;6.214;2022-12-11T12:05:34;1.70;99.90
57390;DHT22;43217;52.694;6.214;2022-12-11T12:08:32;1.70;99.90
57390;DHT22;43217;52.694;6.214;2022-12-11T12:14:12;1.70;99.90
57390;DHT22;43217;52.694;6.214;2022-12-11T12:19:48;1.80;99.90
57390;DHT22;43217;52.694;6.214;2022-12-11T12:25:22;1.70;99.90
57390;DHT22;43217;52.694;6.214;2022-12-11T12:28:11;1.70;99.90
57390;DHT22;43217;52.694;6.214;2022-12-11T12:33:28;1.70;99.90
57390;DHT22;43217;52.694;6.214;2022-12-11T12:36:16;1.60;99.90
57390;DHT22;43217;52.694;6.214;2022-12-11T12:39:01;1.60;99.90
57390;DHT22;43217;52.694;6.214;2022-12-11T12:46:49;1.50;99.90
57390;DHT22;43217;52.694;6.214;2022-12-11T12:49:24;1.40;99.90
57390;DHT22;43217;52.694;6.214;2022-12-11T12:51:52;1.50;99.90
57390;DHT22;43217;52.694;6.214;2022-12-11T12:54:18;1.50;99.90
57390;DHT22;43217;52.694;6.214;2022-12-11T12:56:45;1.50;99.90
57390;DHT22;43217;52.694;6.214;2022-12-11T12:59:23;1.50;99.90
57390;DHT22;43217;52.694;6.214;2022-12-11T13:01:52;1.60;99.90
57390;DHT22;43217;52.694;6.214;2022-12-11T13:04:40;1.50;99.90
57390;DHT22;43217;52.694;6.214;2022-12-11T13:07:18;1.60;99.90
57390;DHT22;43217;52.694;6.214;2022-12-11T13:10:05;1.60;99.90
57390;DHT22;43217;52.694;6.214;2022-12-11T13:12:44;1.50;99.90
57390;DHT22;43217;52.694;6.214;2022-12-11T13:15:26;1.50;99.90
57390;DHT22;43217;52.694;6.214;2022-12-11T13:17:52;1.50;99.90
57390;DHT22;43217;52.694;6.214;2022-12-11T13:20:21;1.50;99.90
57390;DHT22;43217;52.694;6.214;2022-12-11T13:23:08;1.50;99.90
57390;DHT22;43217;52.694;6.214;2022-12-11T13:25:49;1.60;99.90
57390;DHT22;43217;52.694;6.214;2022-12-11T13:31:22;1.60;99.90
57390;DHT22;43217;52.694;6.214;2022-12-11T13:33:55;1.60;99.90
57390;DHT22;43217;52.694;6.214;2022-12-11T13:36:34;1.60;99.90
57390;DHT22;43217;52.694;6.214;2022-12-11T13:39:07;1.60;99.90
57390;DHT22;43217;52.694;6.214;2022-12-11T13:41:45;1.70;99.90
57390;DHT22;43217;52.694;6.214;2022-12-11T13:44:17;1.70;99.90
57390;DHT22;43217;52.694;6.214;2022-12-11T13:46:45;1.70;99.90
57390;DHT22;43217;52.694;6.214;2022-12-11T13:49:20;1.70;99.90
57390;DHT22;43217;52.694;6.214;2022-12-11T13:51:58;1.70;99.90
57390;DHT22;43217;52.694;6.214;2022-12-11T13:54:25;1.70;99.90
57390;DHT22;43217;52.694;6.214;2022-12-11T13:57:00;1.60;99.90
57390;DHT22;43217;52.694;6.214;2022-12-11T13:59:31;1.70;99.90
57390;DHT22;43217;52.694;6.214;2022-12-11T14:02:00;1.70;99.90
57390;DHT22;43217;52.694;6.214;2022-12-11T14:04:27;1.70;99.90
57390;DHT22;43217;52.694;6.214;2022-12-11T14:06:55;1.70;99.90
57390;DHT22;43217;52.694;6.214;2022-12-11T14:09:23;1.70;99.90
57390;DHT22;43217;52.694;6.214;2022-12-11T14:11:51;1.70;99.90
57390;DHT22;43217;52.694;6.214;2022-12-11T14:14:19;1.70;99.90
57390;DHT22;43217;52.694;6.214;2022-12-11T14:16:47;1.70;99.90
57390;DHT22;43217;52.694;6.214;2022-12-11T14:19:16;1.70;99.90
57390;DHT22;43217;52.694;6.214;2022-12-11T14:21:42;1.70;99.90
57390;DHT22;43217;52.694;6.214;2022-12-11T14:24:11;1.70;99.90
57390;DHT22;43217;52.694;6.214;2022-12-11T14:26:38;1.70;99.90
57390;DHT22;43217;52.694;6.214;2022-12-11T14:29:05;1.70;99.90
57390;DHT22;43217;52.694;6.214;2022-12-11T14:31:33;1.70;99.90
57390;DHT22;43217;52.694;6.214;2022-12-11T14:34:06;1.70;99.90
57390;DHT22;43217;52.694;6.214;2022-12-11T14:36:35;1.70;99.90
57390;DHT22;43217;52.694;6.214;2022-12-11T14:39:05;1.70;99.90
57390;DHT22;43217;52.694;6.214;2022-12-11T14:41:48;1.70;99.90
57390;DHT22;43217;52.694;6.214;2022-12-11T14:44:18;1.70;99.90
57390;DHT22;43217;52.694;6.214;2022-12-11T14:46:49;1.70;99.90
57390;DHT22;43217;52.694;6.214;2022-12-11T14:49:37;1.70;99.90
57390;DHT22;43217;52.694;6.214;2022-12-11T14:52:04;1.70;99.90
57390;DHT22;43217;52.694;6.214;2022-12-11T14:54:35;1.70;99.90
57390;DHT22;43217;52.694;6.214;2022-12-11T14:57:03;1.70;99.90
57390;DHT22;43217;52.694;6.214;2022-12-11T14:59:37;1.70;99.90
57390;DHT22;43217;52.694;6.214;2022-12-11T15:02:38;1.70;99.90
57390;DHT22;43217;52.694;6.214;2022-12-11T15:05:21;1.70;99.90
57390;DHT22;43217;52.694;6.214;2022-12-11T15:08:02;1.70;99.90
57390;DHT22;43217;52.694;6.214;2022-12-11T15:10:41;1.70;99.90
57390;DHT22;43217;52.694;6.214;2022-12-11T15:13:08;1.70;99.90
57390;DHT22;43217;52.694;6.214;2022-12-11T15:15:52;1.70;99.90
57390;DHT22;43217;52.694;6.214;2022-12-11T15:18:36;1.70;99.90
57390;DHT22;43217;52.694;6.214;2022-12-11T15:21:08;1.70;99.90
57390;DHT22;43217;52.694;6.214;2022-12-11T15:26:10;1.70;99.90
57390;DHT22;43217;52.694;6.214;2022-12-11T15:28:37;1.70;99.90
57390;DHT22;43217;52.694;6.214;2022-12-11T15:31:26;1.70;99.90
57390;DHT22;43217;52.694;6.214;2022-12-11T15:33:53;1.60;99.90
57390;DHT22;43217;52.694;6.214;2022-12-11T15:36:39;1.60;99.90
57390;DHT22;43217;52.694;6.214;2022-12-11T15:39:04;1.70;99.90
57390;DHT22;43217;52.694;6.214;2022-12-11T15:41:33;1.60;99.90
57390;DHT22;43217;52.694;6.214;2022-12-11T15:44:01;1.60;99.90
57390;DHT22;43217;52.694;6.214;2022-12-11T15:46:28;1.60;99.90
57390;DHT22;43217;52.694;6.214;2022-12-11T15:48:55;1.70;99.90
57390;DHT22;43217;52.694;6.214;2022-12-11T15:51:21;1.70;99.90
57390;DHT22;43217;52.694;6.214;2022-12-11T15:53:48;1.70;99.90
57390;DHT22;43217;52.694;6.214;2022-12-11T15:56:16;1.70;99.90
57390;DHT22;43217;52.694;6.214;2022-12-11T15:58:44;1.70;99.90
57390;DHT22;43217;52.694;6.214;2022-12-11T16:01:10;1.70;99.90
57390;DHT22;43217;52.694;6.214;2022-12-11T16:03:36;1.60;99.90
57390;DHT22;43217;52.694;6.214;2022-12-11T16:06:02;1.70;99.90
57390;DHT22;43217;52.694;6.214;2022-12-11T16:08:28;1.70;99.90
57390;DHT22;43217;52.694;6.214;2022-12-11T16:10:54;1.70;99.90
57390;DHT22;43217;52.694;6.214;2022-12-11T16:13:20;1.60;99.90
57390;DHT22;43217;52.694;6.214;2022-12-11T16:15:48;1.60;99.90
57390;DHT22;43217;52.694;6.214;2022-12-11T16:18:17;1.60;99.90
57390;DHT22;43217;52.694;6.214;2022-12-11T16:20:44;1.60;99.90
57390;DHT22;43217;52.694;6.214;2022-12-11T16:23:11;1.50;99.90
57390;DHT22;43217;52.694;6.214;2022-12-11T16:25:38;1.50;99.90
57390;DHT22;43217;52.694;6.214;2022-12-11T16:28:05;1.50;99.90
57390;DHT22;43217;52.694;6.214;2022-12-11T16:30:34;1.50;99.90
57390;DHT22;43217;52.694;6.214;2022-12-11T16:33:00;1.60;99.90
57390;DHT22;43217;52.694;6.214;2022-12-11T16:35:28;1.50;99.90
57390;DHT22;43217;52.694;6.214;2022-12-11T16:37:54;1.50;99.90
57390;DHT22;43217;52.694;6.214;2022-12-11T16:40:20;1.50;99.90
57390;DHT22;43217;52.694;6.214;2022-12-11T16:42:46;1.50;99.90
57390;DHT22;43217;52.694;6.214;2022-12-11T16:45:18;1.50;99.90
57390;DHT22;43217;52.694;6.214;2022-12-11T16:47:44;1.50;99.90
57390;DHT22;43217;52.694;6.214;2022-12-11T16:50:11;1.50;99.90
57390;DHT22;43217;52.694;6.214;2022-12-11T16:52:37;1.50;99.90
57390;DHT22;43217;52.694;6.214;2022-12-11T16:55:02;1.50;99.90
57390;DHT22;43217;52.694;6.214;2022-12-11T16:57:28;1.60;99.90
57390;DHT22;43217;52.694;6.214;2022-12-11T16:59:54;1.60;99.90